TimePST,TemperatureF,Dew PointF,Humidity,Sea Level PressureIn,VisibilityMPH,Wind Direction,Wind SpeedMPH,Gust SpeedMPH,PrecipitationIn,Events,Conditions,WindDirDegrees,DateUTC
12:15 AM,51.8,48.2,88,30.09,7.0,North,-9999.0,-,0.02,,Overcast,0,2013-11-07 08:15:00
12:35 AM,51.8,48.2,88,30.08,7.0,North,-9999.0,-,0.05,,Overcast,0,2013-11-07 08:35:00
12:55 AM,51.8,48.2,88,30.07,6.0,North,-9999.0,-,0.09,,Overcast,0,2013-11-07 08:55:00
1:15 AM,51.8,46.4,82,30.05,7.0,North,-9999.0,-,0.02,,Overcast,0,2013-11-07 09:15:00
1:35 AM,51.8,46.4,82,30.04,6.0,North,-9999.0,-,0.04,,Overcast,0,2013-11-07 09:35:00
1:55 AM,50.0,46.4,87,30.04,7.0,SSE,11.5,-,0.04,,Overcast,150,2013-11-07 09:55:00
2:15 AM,50.0,46.4,87,30.03,7.0,SSE,10.4,-,0.01,,Overcast,150,2013-11-07 10:15:00
2:35 AM,50.0,46.4,87,30.02,7.0,SE,11.5,18.4,0.01,,Overcast,140,2013-11-07 10:35:00
2:55 AM,50.0,46.4,87,30.00,8.0,SSE,12.7,17.3,0.01,,Overcast,150,2013-11-07 10:55:00
3:15 AM,50.0,46.4,87,30.00,7.0,SSE,11.5,17.3,N/A,,Overcast,150,2013-11-07 11:15:00
3:35 AM,50.0,46.4,87,29.99,5.0,SE,12.7,19.6,N/A,,Overcast,140,2013-11-07 11:35:00
3:55 AM,50.0,46.4,87,29.98,7.0,SSE,12.7,17.3,0.05,,Overcast,150,2013-11-07 11:55:00
4:15 AM,50.0,46.4,87,29.97,8.0,SSE,16.1,21.9,0.01,,Overcast,150,2013-11-07 12:15:00
4:35 AM,50.0,46.4,87,29.96,7.0,SSE,11.5,18.4,0.01,,Overcast,150,2013-11-07 12:35:00
4:55 AM,50.0,46.4,87,29.95,7.0,SSE,11.5,-,0.01,,Overcast,150,2013-11-07 12:55:00
5:15 AM,50.0,46.4,87,29.94,6.0,SE,12.7,17.3,N/A,,Overcast,140,2013-11-07 13:15:00
5:35 AM,50.0,46.4,87,29.93,7.0,SE,10.4,16.1,0.01,,Overcast,140,2013-11-07 13:35:00
5:55 AM,50.0,46.4,87,29.91,6.0,SSE,9.2,-,0.01,,Overcast,160,2013-11-07 13:55:00
6:15 AM,51.8,46.4,82,29.90,9.0,SE,10.4,-,N/A,,Overcast,140,2013-11-07 14:15:00
6:35 AM,51.8,48.2,88,29.89,6.0,SSE,9.2,-,0.01,,Overcast,160,2013-11-07 14:35:00
6:55 AM,51.8,48.2,88,29.87,7.0,North,-9999.0,-,0.03,,Overcast,0,2013-11-07 14:55:00
7:15 AM,51.8,48.2,88,29.86,8.0,North,-9999.0,-,N/A,,Overcast,0,2013-11-07 15:15:00
7:35 AM,53.6,50.0,88,29.87,5.0,North,-9999.0,-,0.04,,Overcast,0,2013-11-07 15:35:00
7:55 AM,51.8,46.4,82,29.91,7.0,North,-9999.0,-,0.13,,Overcast,0,2013-11-07 15:55:00
8:15 AM,48.2,44.6,87,29.92,8.0,North,-9999.0,-,0.12,,Mostly Cloudy,0,2013-11-07 16:15:00
8:35 AM,48.2,44.6,87,29.92,10.0,NE,4.6,-,0.16,,Overcast,40,2013-11-07 16:35:00
8:55 AM,48.2,44.6,87,29.93,10.0,NNE,3.5,-,0.17,,Overcast,30,2013-11-07 16:55:00
9:15 AM,50.0,42.8,76,29.94,10.0,West,6.9,-,0.02,,Overcast,270,2013-11-07 17:15:00
9:35 AM,48.2,42.8,82,29.93,10.0,Calm,Calm,-,0.03,,Overcast,0,2013-11-07 17:35:00
9:55 AM,48.2,44.6,87,29.94,10.0,ENE,3.5,-,0.03,,Overcast,70,2013-11-07 17:55:00
10:15 AM,51.8,44.6,76,29.94,10.0,North,-9999.0,-,0.01,,Mostly Cloudy,0,2013-11-07 18:15:00
10:35 AM,51.8,44.6,76,29.93,10.0,SSE,6.9,-,0.01,,Scattered Clouds,160,2013-11-07 18:35:00
10:55 AM,51.8,42.8,71,29.94,10.0,South,8.1,-,0.01,,Overcast,180,2013-11-07 18:55:00
11:15 AM,51.8,42.8,71,29.95,10.0,South,8.1,-,N/A,,Overcast,170,2013-11-07 19:15:00
11:35 AM,51.8,44.6,76,29.94,10.0,North,-9999.0,-,N/A,,Mostly Cloudy,0,2013-11-07 19:35:00
11:55 AM,50.0,44.6,82,29.94,7.0,South,9.2,-,N/A,,Overcast,170,2013-11-07 19:55:00
12:15 PM,50.0,44.6,82,29.94,10.0,North,-9999.0,-,0.01,,Overcast,0,2013-11-07 20:15:00
12:35 PM,50.0,46.4,87,29.94,10.0,North,-9999.0,-,0.01,,Overcast,0,2013-11-07 20:35:00
12:55 PM,51.8,46.4,82,29.93,10.0,South,9.2,-,0.01,,Overcast,170,2013-11-07 20:55:00
1:15 PM,51.8,46.4,82,29.93,10.0,North,-9999.0,-,N/A,,Overcast,0,2013-11-07 21:15:00
1:35 PM,51.8,44.6,76,29.93,10.0,North,-9999.0,-,N/A,,Overcast,0,2013-11-07 21:35:00
1:55 PM,53.6,44.6,72,29.93,10.0,North,-9999.0,-,N/A,,Mostly Cloudy,0,2013-11-07 21:55:00
2:15 PM,53.6,44.6,72,29.93,10.0,North,-9999.0,-,N/A,,Overcast,0,2013-11-07 22:15:00
2:35 PM,53.6,44.6,72,29.94,10.0,North,-9999.0,-,N/A,,Overcast,0,2013-11-07 22:35:00
2:55 PM,51.8,42.8,71,29.94,10.0,South,13.8,19.6,N/A,,Overcast,190,2013-11-07 22:55:00
3:15 PM,51.8,42.8,71,29.96,10.0,North,-9999.0,-,0.01,,Overcast,0,2013-11-07 23:15:00
3:35 PM,50.0,42.8,76,29.96,10.0,North,-9999.0,-,0.01,,Overcast,0,2013-11-07 23:35:00
3:55 PM,50.0,42.8,76,29.96,10.0,North,-9999.0,-,0.01,,Overcast,0,2013-11-07 23:55:00
4:15 PM,50.0,42.8,76,29.97,10.0,North,-9999.0,-,N/A,,Overcast,0,2013-11-08 00:15:00
4:35 PM,48.2,44.6,87,29.98,10.0,North,-9999.0,-,0.01,,Overcast,0,2013-11-08 00:35:00
4:55 PM,48.2,44.6,87,29.98,10.0,North,-9999.0,-,0.01,,Overcast,0,2013-11-08 00:55:00
5:15 PM,48.2,44.6,87,29.98,10.0,North,-9999.0,-,N/A,,Overcast,0,2013-11-08 01:15:00
5:35 PM,48.2,44.6,87,30.00,10.0,North,-9999.0,-,N/A,,Overcast,0,2013-11-08 01:35:00
5:55 PM,48.2,44.6,87,30.02,7.0,North,-9999.0,-,0.02,,Overcast,0,2013-11-08 01:55:00
6:15 PM,48.2,44.6,87,30.03,8.0,North,-9999.0,-,0.06,,Overcast,0,2013-11-08 02:15:00
6:35 PM,48.2,44.6,87,30.04,9.0,North,-9999.0,-,0.07,,Overcast,0,2013-11-08 02:35:00
6:55 PM,48.2,44.6,87,30.04,10.0,North,-9999.0,-,0.07,,Overcast,0,2013-11-08 02:55:00
7:15 PM,48.2,44.6,87,30.06,10.0,North,-9999.0,-,N/A,,Overcast,0,2013-11-08 03:15:00
7:35 PM,48.2,44.6,87,30.07,10.0,North,-9999.0,-,N/A,,Overcast,0,2013-11-08 03:35:00
7:55 PM,48.2,44.6,87,30.08,10.0,North,-9999.0,-,N/A,,Overcast,0,2013-11-08 03:55:00
8:15 PM,48.2,44.6,87,30.08,10.0,North,-9999.0,-,N/A,,Overcast,0,2013-11-08 04:15:00
8:35 PM,48.2,44.6,87,30.08,10.0,North,-9999.0,-,N/A,,Overcast,0,2013-11-08 04:35:00
8:55 PM,48.2,44.6,87,30.09,10.0,North,-9999.0,-,N/A,,Overcast,0,2013-11-08 04:55:00
9:15 PM,48.2,44.6,87,30.10,8.0,North,-9999.0,-,N/A,,Mostly Cloudy,0,2013-11-08 05:15:00
9:35 PM,48.2,44.6,87,30.10,10.0,North,-9999.0,-,N/A,,Overcast,0,2013-11-08 05:35:00
9:55 PM,48.2,44.6,87,30.11,10.0,North,-9999.0,-,N/A,,Overcast,0,2013-11-08 05:55:00
10:15 PM,48.2,44.6,87,30.12,10.0,North,-9999.0,-,N/A,,Overcast,0,2013-11-08 06:15:00
10:35 PM,48.2,44.6,87,30.12,10.0,North,-9999.0,-,N/A,,Overcast,0,2013-11-08 06:35:00
10:55 PM,48.2,44.6,87,30.13,8.0,North,-9999.0,-,N/A,,Overcast,0,2013-11-08 06:55:00
11:15 PM,48.2,44.6,87,30.13,10.0,North,-9999.0,-,0.01,,Mostly Cloudy,0,2013-11-08 07:15:00
11:35 PM,48.2,44.6,87,30.14,10.0,North,-9999.0,-,0.01,,Overcast,0,2013-11-08 07:35:00
11:55 PM,48.2,44.6,87,30.13,10.0,North,-9999.0,-,0.01,,Overcast,0,2013-11-08 07:55:00